sensor_id;sensor_type;location;lat;lon;timestamp;pressure;altitude;pressure_sealevel;temperature;humidity
42601;BME280;28229;48.856;9.088;2023-01-16T00:02:16;96800.38;;;1.82;77.49
42601;BME280;28229;48.856;9.088;2023-01-16T00:04:42;96794.81;;;1.85;77.46
42601;BME280;28229;48.856;9.088;2023-01-16T00:07:08;96786.84;;;1.87;77.30
42601;BME280;28229;48.856;9.088;2023-01-16T00:09:34;96788.09;;;1.91;77.03
42601;BME280;28229;48.856;9.088;2023-01-16T00:12:00;96775.28;;;1.89;77.08
42601;BME280;28229;48.856;9.088;2023-01-16T00:14:29;96772.94;;;1.95;76.44
42601;BME280;28229;48.856;9.088;2023-01-16T00:16:56;96769.16;;;1.97;76.58
42601;BME280;28229;48.856;9.088;2023-01-16T00:19:22;96759.78;;;2.03;76.40
42601;BME280;28229;48.856;9.088;2023-01-16T00:21:48;96761.00;;;2.00;76.36
42601;BME280;28229;48.856;9.088;2023-01-16T00:24:14;96758.81;;;2.04;76.32
42601;BME280;28229;48.856;9.088;2023-01-16T00:26:40;96759.41;;;2.06;76.21
42601;BME280;28229;48.856;9.088;2023-01-16T00:29:07;96750.25;;;2.10;75.80
42601;BME280;28229;48.856;9.088;2023-01-16T00:31:33;96744.84;;;2.05;76.00
42601;BME280;28229;48.856;9.088;2023-01-16T00:33:59;96742.28;;;2.12;75.39
42601;BME280;28229;48.856;9.088;2023-01-16T00:36:25;96734.31;;;2.13;75.43
42601;BME280;28229;48.856;9.088;2023-01-16T00:38:51;96714.00;;;2.23;74.76
42601;BME280;28229;48.856;9.088;2023-01-16T00:41:17;96712.59;;;2.27;74.65
42601;BME280;28229;48.856;9.088;2023-01-16T00:43:44;96712.59;;;2.27;74.63
42601;BME280;28229;48.856;9.088;2023-01-16T00:46:10;96705.63;;;2.35;74.02
42601;BME280;28229;48.856;9.088;2023-01-16T00:48:36;96703.00;;;2.28;74.47
42601;BME280;28229;48.856;9.088;2023-01-16T00:51:03;96705.22;;;2.31;74.25
42601;BME280;28229;48.856;9.088;2023-01-16T00:53:29;96695.66;;;2.32;74.00
42601;BME280;28229;48.856;9.088;2023-01-16T00:55:55;96690.88;;;2.28;74.05
42601;BME280;28229;48.856;9.088;2023-01-16T00:58:21;96693.66;;;2.27;74.31
42601;BME280;28229;48.856;9.088;2023-01-16T01:00:48;96685.06;;;2.26;74.49
42601;BME280;28229;48.856;9.088;2023-01-16T01:03:15;96683.63;;;2.17;74.76
42601;BME280;28229;48.856;9.088;2023-01-16T01:05:41;96674.81;;;2.12;74.90
42601;BME280;28229;48.856;9.088;2023-01-16T01:08:07;96679.22;;;2.11;74.92
42601;BME280;28229;48.856;9.088;2023-01-16T01:10:37;96673.84;;;2.13;74.85
42601;BME280;28229;48.856;9.088;2023-01-16T01:13:05;96673.63;;;2.07;74.92
42601;BME280;28229;48.856;9.088;2023-01-16T01:15:32;96665.25;;;2.12;74.64
42601;BME280;28229;48.856;9.088;2023-01-16T01:17:58;96648.66;;;2.00;75.04
42601;BME280;28229;48.856;9.088;2023-01-16T01:20:24;96657.66;;;2.04;74.95
42601;BME280;28229;48.856;9.088;2023-01-16T01:22:50;96651.84;;;2.02;74.89
42601;BME280;28229;48.856;9.088;2023-01-16T01:25:16;96651.25;;;2.00;75.05
42601;BME280;28229;48.856;9.088;2023-01-16T01:27:43;96649.22;;;1.95;75.10
42601;BME280;28229;48.856;9.088;2023-01-16T01:30:10;96646.44;;;1.97;75.10
42601;BME280;28229;48.856;9.088;2023-01-16T01:32:36;96635.69;;;2.00;74.71
42601;BME280;28229;48.856;9.088;2023-01-16T01:35:07;96632.06;;;1.94;75.06
42601;BME280;28229;48.856;9.088;2023-01-16T01:37:33;96629.88;;;1.98;74.89
42601;BME280;28229;48.856;9.088;2023-01-16T01:40:02;96613.72;;;1.89;75.44
42601;BME280;28229;48.856;9.088;2023-01-16T01:42:39;96626.88;;;1.94;75.14
42601;BME280;28229;48.856;9.088;2023-01-16T01:45:19;96601.34;;;1.91;75.00
42601;BME280;28229;48.856;9.088;2023-01-16T01:51:00;96600.53;;;1.90;75.04
42601;BME280;28229;48.856;9.088;2023-01-16T01:53:31;96602.72;;;1.87;75.41
42601;BME280;28229;48.856;9.088;2023-01-16T01:56:01;96586.94;;;1.88;75.12
42601;BME280;28229;48.856;9.088;2023-01-16T01:58:32;96583.16;;;1.84;75.30
42601;BME280;28229;48.856;9.088;2023-01-16T02:00:59;96575.75;;;1.81;75.34
42601;BME280;28229;48.856;9.088;2023-01-16T02:03:33;96571.19;;;1.83;75.30
42601;BME280;28229;48.856;9.088;2023-01-16T02:06:05;96560.59;;;1.78;75.58
42601;BME280;28229;48.856;9.088;2023-01-16T02:08:33;96551.03;;;1.85;75.38
42601;BME280;28229;48.856;9.088;2023-01-16T02:11:07;96541.84;;;1.83;75.29
42601;BME280;28229;48.856;9.088;2023-01-16T02:13:55;96536.06;;;1.81;75.44
42601;BME280;28229;48.856;9.088;2023-01-16T02:16:23;96524.69;;;1.82;75.29
42601;BME280;28229;48.856;9.088;2023-01-16T02:20:00;96521.72;;;1.85;75.12
42601;BME280;28229;48.856;9.088;2023-01-16T02:25:36;96501.38;;;1.88;75.11
42601;BME280;28229;48.856;9.088;2023-01-16T02:28:12;96501.97;;;1.90;75.08
42601;BME280;28229;48.856;9.088;2023-01-16T02:42:16;96460.69;;;1.96;74.76
42601;BME280;28229;48.856;9.088;2023-01-16T02:48:23;96438.13;;;2.03;74.54
42601;BME280;28229;48.856;9.088;2023-01-16T02:51:14;96429.75;;;2.01;74.51
42601;BME280;28229;48.856;9.088;2023-01-16T02:53:55;96425.75;;;2.05;74.69
42601;BME280;28229;48.856;9.088;2023-01-16T02:56:27;96413.41;;;2.00;74.82
42601;BME280;28229;48.856;9.088;2023-01-16T02:58:57;96407.59;;;2.05;74.56
42601;BME280;28229;48.856;9.088;2023-01-16T03:01:24;96387.66;;;2.05;74.53
42601;BME280;28229;48.856;9.088;2023-01-16T03:04:04;96392.84;;;2.12;74.05
42601;BME280;28229;48.856;9.088;2023-01-16T03:06:49;96387.88;;;2.11;74.10
42601;BME280;28229;48.856;9.088;2023-01-16T03:09:37;96375.88;;;2.16;73.88
42601;BME280;28229;48.856;9.088;2023-01-16T03:15:10;96358.31;;;2.12;73.83
42601;BME280;28229;48.856;9.088;2023-01-16T03:23:11;96342.56;;;2.13;73.97
42601;BME280;28229;48.856;9.088;2023-01-16T03:25:51;96338.75;;;2.16;73.60
42601;BME280;28229;48.856;9.088;2023-01-16T03:28:39;96340.94;;;2.12;74.03
42601;BME280;28229;48.856;9.088;2023-01-16T03:34:48;96332.56;;;2.23;73.46
42601;BME280;28229;48.856;9.088;2023-01-16T03:36:59;96323.41;;;2.14;73.63
42601;BME280;28229;48.856;9.088;2023-01-16T03:39:30;96317.22;;;2.08;74.14
42601;BME280;28229;48.856;9.088;2023-01-16T03:42:02;96295.28;;;2.11;73.95
42601;BME280;28229;48.856;9.088;2023-01-16T03:44:35;96294.09;;;2.07;74.09
42601;BME280;28229;48.856;9.088;2023-01-16T03:47:06;96285.69;;;2.12;73.94
42601;BME280;28229;48.856;9.088;2023-01-16T03:49:40;96282.09;;;2.06;74.20
42601;BME280;28229;48.856;9.088;2023-01-16T03:52:11;96278.09;;;2.10;73.91
42601;BME280;28229;48.856;9.088;2023-01-16T03:57:08;96259.78;;;1.98;74.13
42601;BME280;28229;48.856;9.088;2023-01-16T03:59:37;96258.56;;;2.01;74.25
42601;BME280;28229;48.856;9.088;2023-01-16T04:07:35;96229.06;;;1.95;74.21
42601;BME280;28229;48.856;9.088;2023-01-16T04:10:07;96228.28;;;1.88;74.54
42601;BME280;28229;48.856;9.088;2023-01-16T04:12:41;96214.94;;;1.84;74.88
42601;BME280;28229;48.856;9.088;2023-01-16T04:15:10;96205.56;;;1.83;74.77
42601;BME280;28229;48.856;9.088;2023-01-16T04:17:37;96204.78;;;1.76;74.93
42601;BME280;28229;48.856;9.088;2023-01-16T04:20:05;96188.03;;;1.79;74.82
42601;BME280;28229;48.856;9.088;2023-01-16T04:22:31;96182.47;;;1.75;74.98
42601;BME280;28229;48.856;9.088;2023-01-16T04:25:00;96183.44;;;1.74;75.15
42601;BME280;28229;48.856;9.088;2023-01-16T04:27:27;96168.53;;;1.69;75.20
42601;BME280;28229;48.856;9.088;2023-01-16T04:29:53;96158.16;;;1.69;75.09
42601;BME280;28229;48.856;9.088;2023-01-16T04:32:19;96156.34;;;1.70;75.07
42601;BME280;28229;48.856;9.088;2023-01-16T04:34:46;96149.75;;;1.74;74.95
42601;BME280;28229;48.856;9.088;2023-01-16T04:37:14;96140.00;;;1.69;75.35
42601;BME280;28229;48.856;9.088;2023-01-16T04:39:40;96128.44;;;1.65;75.60
42601;BME280;28229;48.856;9.088;2023-01-16T04:42:07;96130.44;;;1.63;75.61
42601;BME280;28229;48.856;9.088;2023-01-16T04:44:33;96112.31;;;1.57;75.66
42601;BME280;28229;48.856;9.088;2023-01-16T04:46:59;96111.53;;;1.49;75.88
42601;BME280;28229;48.856;9.088;2023-01-16T04:49:26;96107.13;;;1.57;75.70
42601;BME280;28229;48.856;9.088;2023-01-16T04:51:52;96094.22;;;1.50;76.04
42601;BME280;28229;48.856;9.088;2023-01-16T04:54:19;96082.44;;;1.47;76.10
42601;BME280;28229;48.856;9.088;2023-01-16T04:56:46;96080.06;;;1.46;76.17
42601;BME280;28229;48.856;9.088;2023-01-16T04:59:12;96066.53;;;1.37;76.47
42601;BME280;28229;48.856;9.088;2023-01-16T05:01:39;96064.56;;;1.39;76.51
42601;BME280;28229;48.856;9.088;2023-01-16T05:04:08;96057.78;;;1.38;76.65
42601;BME280;28229;48.856;9.088;2023-01-16T05:06:35;96055.38;;;1.37;76.56
42601;BME280;28229;48.856;9.088;2023-01-16T05:09:03;96045.22;;;1.35;77.09
42601;BME280;28229;48.856;9.088;2023-01-16T05:11:29;96033.09;;;1.29;77.00
42601;BME280;28229;48.856;9.088;2023-01-16T05:13:55;96030.31;;;1.30;76.78
42601;BME280;28229;48.856;9.088;2023-01-16T05:16:22;96023.72;;;1.35;76.42
42601;BME280;28229;48.856;9.088;2023-01-16T05:18:48;96017.34;;;1.30;76.66
42601;BME280;28229;48.856;9.088;2023-01-16T05:21:14;96004.03;;;1.27;76.96
42601;BME280;28229;48.856;9.088;2023-01-16T05:23:40;95995.25;;;1.21;77.31
42601;BME280;28229;48.856;9.088;2023-01-16T05:26:06;95986.88;;;1.26;77.40
42601;BME280;28229;48.856;9.088;2023-01-16T05:28:33;95980.91;;;1.25;77.34
42601;BME280;28229;48.856;9.088;2023-01-16T05:31:00;95978.53;;;1.24;77.44
42601;BME280;28229;48.856;9.088;2023-01-16T05:33:27;95974.53;;;1.21;77.64
42601;BME280;28229;48.856;9.088;2023-01-16T05:35:53;95971.75;;;1.23;77.33
42601;BME280;28229;48.856;9.088;2023-01-16T05:38:20;95958.03;;;1.16;77.43
42601;BME280;28229;48.856;9.088;2023-01-16T05:40:46;95954.06;;;1.13;77.66
42601;BME280;28229;48.856;9.088;2023-01-16T05:43:13;95948.25;;;1.18;77.53
42601;BME280;28229;48.856;9.088;2023-01-16T05:45:39;95941.50;;;1.17;77.86
42601;BME280;28229;48.856;9.088;2023-01-16T05:48:05;95919.97;;;1.16;78.31
42601;BME280;28229;48.856;9.088;2023-01-16T05:50:32;95910.03;;;1.13;78.50
42601;BME280;28229;48.856;9.088;2023-01-16T05:52:58;95897.28;;;1.11;78.05
42601;BME280;28229;48.856;9.088;2023-01-16T05:55:25;95892.47;;;1.15;77.73
42601;BME280;28229;48.856;9.088;2023-01-16T05:57:51;95880.91;;;1.18;77.60
42601;BME280;28229;48.856;9.088;2023-01-16T06:00:17;95871.56;;;1.17;77.68
42601;BME280;28229;48.856;9.088;2023-01-16T06:02:44;95870.13;;;1.21;77.55
42601;BME280;28229;48.856;9.088;2023-01-16T06:05:13;95857.94;;;1.28;76.90
42601;BME280;28229;48.856;9.088;2023-01-16T06:07:39;95851.38;;;1.25;76.78
42601;BME280;28229;48.856;9.088;2023-01-16T06:10:09;95843.81;;;1.24;76.97
42601;BME280;28229;48.856;9.088;2023-01-16T06:12:35;95833.97;;;1.39;76.01
42601;BME280;28229;48.856;9.088;2023-01-16T06:15:02;95827.19;;;1.38;75.83
42601;BME280;28229;48.856;9.088;2023-01-16T06:17:28;95824.56;;;1.45;75.58
42601;BME280;28229;48.856;9.088;2023-01-16T06:19:54;95814.56;;;1.48;75.27
42601;BME280;28229;48.856;9.088;2023-01-16T06:22:49;95806.13;;;1.53;75.11
42601;BME280;28229;48.856;9.088;2023-01-16T06:25:16;95792.53;;;1.58;74.82
42601;BME280;28229;48.856;9.088;2023-01-16T06:27:47;95789.38;;;1.56;75.21
42601;BME280;28229;48.856;9.088;2023-01-16T06:30:14;95778.00;;;1.57;74.90
42601;BME280;28229;48.856;9.088;2023-01-16T06:32:41;95771.03;;;1.57;75.21
42601;BME280;28229;48.856;9.088;2023-01-16T06:35:07;95768.06;;;1.54;75.53
42601;BME280;28229;48.856;9.088;2023-01-16T06:37:33;95751.13;;;1.51;75.58
42601;BME280;28229;48.856;9.088;2023-01-16T06:39:59;95747.19;;;1.48;75.99
42601;BME280;28229;48.856;9.088;2023-01-16T06:42:27;95750.34;;;1.50;75.78
42601;BME280;28229;48.856;9.088;2023-01-16T06:44:53;95748.75;;;1.49;76.22
42601;BME280;28229;48.856;9.088;2023-01-16T06:47:20;95737.81;;;1.47;76.42
42601;BME280;28229;48.856;9.088;2023-01-16T06:49:46;95729.88;;;1.42;76.66
42601;BME280;28229;48.856;9.088;2023-01-16T06:52:12;95737.38;;;1.32;76.78
42601;BME280;28229;48.856;9.088;2023-01-16T06:54:38;95735.97;;;1.29;76.75
42601;BME280;28229;48.856;9.088;2023-01-16T06:57:05;95729.31;;;1.40;76.56
42601;BME280;28229;48.856;9.088;2023-01-16T06:59:31;95723.97;;;1.35;76.46
42601;BME280;28229;48.856;9.088;2023-01-16T07:01:57;95720.03;;;1.32;76.81
42601;BME280;28229;48.856;9.088;2023-01-16T07:04:23;95720.03;;;1.32;76.79
42601;BME280;28229;48.856;9.088;2023-01-16T07:06:49;95713.59;;;1.35;76.66
42601;BME280;28229;48.856;9.088;2023-01-16T07:09:18;95710.97;;;1.42;76.11
42601;BME280;28229;48.856;9.088;2023-01-16T07:11:45;95713.28;;;1.50;75.83
42601;BME280;28229;48.856;9.088;2023-01-16T07:14:11;95705.78;;;1.42;76.14
42601;BME280;28229;48.856;9.088;2023-01-16T07:16:55;95704.13;;;1.47;75.84
42601;BME280;28229;48.856;9.088;2023-01-16T07:19:40;95695.22;;;1.43;76.00
42601;BME280;28229;48.856;9.088;2023-01-16T07:22:35;95697.94;;;1.48;75.97
42601;BME280;28229;48.856;9.088;2023-01-16T07:25:31;95684.13;;;1.55;75.54
42601;BME280;28229;48.856;9.088;2023-01-16T07:27:59;95675.63;;;1.47;75.78
42601;BME280;28229;48.856;9.088;2023-01-16T07:30:25;95676.19;;;1.49;75.81
42601;BME280;28229;48.856;9.088;2023-01-16T07:33:06;95670.59;;;1.52;75.85
42601;BME280;28229;48.856;9.088;2023-01-16T07:35:32;95675.34;;;1.56;75.50
42601;BME280;28229;48.856;9.088;2023-01-16T07:37:58;95663.81;;;1.51;75.61
42601;BME280;28229;48.856;9.088;2023-01-16T07:40:24;95665.34;;;1.59;74.80
42601;BME280;28229;48.856;9.088;2023-01-16T07:42:50;95664.84;;;1.50;75.05
42601;BME280;28229;48.856;9.088;2023-01-16T07:45:17;95660.66;;;1.49;75.31
42601;BME280;28229;48.856;9.088;2023-01-16T07:47:43;95652.25;;;1.54;75.16
42601;BME280;28229;48.856;9.088;2023-01-16T07:50:10;95641.94;;;1.47;75.61
42601;BME280;28229;48.856;9.088;2023-01-16T07:52:36;95632.28;;;1.55;75.51
42601;BME280;28229;48.856;9.088;2023-01-16T07:55:03;95621.94;;;1.55;75.68
42601;BME280;28229;48.856;9.088;2023-01-16T07:57:29;95613.72;;;1.58;75.65
42601;BME280;28229;48.856;9.088;2023-01-16T07:59:55;95611.00;;;1.52;75.77
42601;BME280;28229;48.856;9.088;2023-01-16T08:02:21;95601.63;;;1.70;84.86
42601;BME280;28229;48.856;9.088;2023-01-16T08:04:47;95595.69;;;1.81;82.26
42601;BME280;28229;48.856;9.088;2023-01-16T08:07:14;95595.97;;;1.92;81.08
42601;BME280;28229;48.856;9.088;2023-01-16T08:09:40;95591.78;;;1.90;76.63
42601;BME280;28229;48.856;9.088;2023-01-16T08:12:06;95579.53;;;1.98;75.31
42601;BME280;28229;48.856;9.088;2023-01-16T08:14:32;95583.22;;;1.90;75.44
42601;BME280;28229;48.856;9.088;2023-01-16T08:16:58;95573.63;;;1.90;74.54
42601;BME280;28229;48.856;9.088;2023-01-16T08:19:25;95571.03;;;1.90;74.89
42601;BME280;28229;48.856;9.088;2023-01-16T08:21:51;95562.69;;;1.88;74.93
42601;BME280;28229;48.856;9.088;2023-01-16T08:24:17;95569.47;;;1.89;74.58
42601;BME280;28229;48.856;9.088;2023-01-16T08:26:44;95554.06;;;1.95;74.63
42601;BME280;28229;48.856;9.088;2023-01-16T08:29:10;95548.06;;;1.94;74.44
42601;BME280;28229;48.856;9.088;2023-01-16T08:31:36;95547.84;;;1.96;74.31
42601;BME280;28229;48.856;9.088;2023-01-16T08:34:03;95540.06;;;1.96;73.42
42601;BME280;28229;48.856;9.088;2023-01-16T08:36:29;95541.88;;;1.95;72.91
42601;BME280;28229;48.856;9.088;2023-01-16T08:38:55;95534.22;;;2.00;72.93
42601;BME280;28229;48.856;9.088;2023-01-16T08:41:21;95529.03;;;2.00;72.78
42601;BME280;28229;48.856;9.088;2023-01-16T08:44:07;95536.03;;;2.00;73.24
42601;BME280;28229;48.856;9.088;2023-01-16T08:47:02;95535.00;;;2.01;72.87
42601;BME280;28229;48.856;9.088;2023-01-16T08:49:48;95534.44;;;1.99;72.15
42601;BME280;28229;48.856;9.088;2023-01-16T08:52:34;95538.16;;;2.03;72.34
42601;BME280;28229;48.856;9.088;2023-01-16T08:55:03;95537.16;;;2.04;71.66
42601;BME280;28229;48.856;9.088;2023-01-16T08:57:29;95532.75;;;2.04;71.61
42601;BME280;28229;48.856;9.088;2023-01-16T08:59:56;95532.19;;;2.02;71.69
42601;BME280;28229;48.856;9.088;2023-01-16T09:02:24;95533.66;;;2.10;71.52
42601;BME280;28229;48.856;9.088;2023-01-16T09:04:50;95532.78;;;2.16;70.39
42601;BME280;28229;48.856;9.088;2023-01-16T09:07:16;95527.25;;;2.24;69.69
42601;BME280;28229;48.856;9.088;2023-01-16T09:09:43;95533.47;;;2.23;69.57
42601;BME280;28229;48.856;9.088;2023-01-16T09:12:10;95527.38;;;2.29;70.78
42601;BME280;28229;48.856;9.088;2023-01-16T09:14:55;95549.84;;;2.36;69.43
42601;BME280;28229;48.856;9.088;2023-01-16T09:17:23;95552.66;;;2.34;68.86
42601;BME280;28229;48.856;9.088;2023-01-16T09:19:49;95555.59;;;2.38;68.89
42601;BME280;28229;48.856;9.088;2023-01-16T09:22:15;95553.91;;;2.43;69.18
42601;BME280;28229;48.856;9.088;2023-01-16T09:24:42;95550.19;;;2.39;68.91
42601;BME280;28229;48.856;9.088;2023-01-16T09:27:08;95531.34;;;2.44;68.82
42601;BME280;28229;48.856;9.088;2023-01-16T09:29:35;95526.84;;;2.51;68.94
42601;BME280;28229;48.856;9.088;2023-01-16T09:32:01;95510.25;;;2.52;68.56
42601;BME280;28229;48.856;9.088;2023-01-16T09:34:35;95502.72;;;2.62;67.88
42601;BME280;28229;48.856;9.088;2023-01-16T09:37:01;95502.72;;;2.62;66.79
42601;BME280;28229;48.856;9.088;2023-01-16T09:39:27;95495.69;;;2.75;65.80
42601;BME280;28229;48.856;9.088;2023-01-16T09:41:58;95480.56;;;2.83;65.28
42601;BME280;28229;48.856;9.088;2023-01-16T09:44:47;95478.31;;;2.87;64.87
42601;BME280;28229;48.856;9.088;2023-01-16T09:47:15;95465.72;;;2.96;64.70
42601;BME280;28229;48.856;9.088;2023-01-16T09:49:48;95474.75;;;3.05;64.11
42601;BME280;28229;48.856;9.088;2023-01-16T09:52:20;95471.66;;;3.20;63.04
42601;BME280;28229;48.856;9.088;2023-01-16T09:55:17;95462.69;;;3.28;62.71
42601;BME280;28229;48.856;9.088;2023-01-16T09:58:05;95452.19;;;3.34;62.40
42601;BME280;28229;48.856;9.088;2023-01-16T10:00:54;95467.78;;;3.34;62.55
42601;BME280;28229;48.856;9.088;2023-01-16T10:03:21;95464.81;;;3.42;62.68
42601;BME280;28229;48.856;9.088;2023-01-16T10:06:25;95460.06;;;3.39;62.92
42601;BME280;28229;48.856;9.088;2023-01-16T10:09:19;95450.78;;;3.43;62.94
42601;BME280;28229;48.856;9.088;2023-01-16T10:11:54;95438.91;;;3.48;61.91
42601;BME280;28229;48.856;9.088;2023-01-16T10:16:54;95415.78;;;3.34;61.93
42601;BME280;28229;48.856;9.088;2023-01-16T10:27:25;95402.13;;;3.39;60.18
42601;BME280;28229;48.856;9.088;2023-01-16T10:29:58;95403.44;;;3.41;59.59
42601;BME280;28229;48.856;9.088;2023-01-16T10:32:38;95396.53;;;3.47;58.30
42601;BME280;28229;48.856;9.088;2023-01-16T10:37:37;95377.72;;;3.57;57.63
42601;BME280;28229;48.856;9.088;2023-01-16T10:40:25;95379.13;;;3.65;56.91
42601;BME280;28229;48.856;9.088;2023-01-16T10:43:09;95372.97;;;3.71;56.08
42601;BME280;28229;48.856;9.088;2023-01-16T10:45:59;95362.41;;;3.77;55.80
42601;BME280;28229;48.856;9.088;2023-01-16T10:48:49;95353.47;;;3.85;55.36
42601;BME280;28229;48.856;9.088;2023-01-16T10:51:33;95351.72;;;3.91;53.74
42601;BME280;28229;48.856;9.088;2023-01-16T10:54:00;95343.97;;;3.96;54.29
42601;BME280;28229;48.856;9.088;2023-01-16T10:56:28;95336.00;;;4.03;53.87
42601;BME280;28229;48.856;9.088;2023-01-16T10:58:55;95323.13;;;4.13;54.15
42601;BME280;28229;48.856;9.088;2023-01-16T11:01:23;95340.09;;;4.15;54.94
42601;BME280;28229;48.856;9.088;2023-01-16T11:03:53;95331.31;;;4.22;54.67
42601;BME280;28229;48.856;9.088;2023-01-16T11:06:23;95321.50;;;4.29;55.17
42601;BME280;28229;48.856;9.088;2023-01-16T15:33:25;94857.50;;;4.96;67.24
42601;BME280;28229;48.856;9.088;2023-01-16T15:36:37;94841.31;;;4.89;68.57
42601;BME280;28229;48.856;9.088;2023-01-16T15:42:10;94834.50;;;4.68;71.99
42601;BME280;28229;48.856;9.088;2023-01-16T15:44:57;94838.09;;;4.62;73.15
42601;BME280;28229;48.856;9.088;2023-01-16T15:52:59;94846.06;;;4.34;76.17
42601;BME280;28229;48.856;9.088;2023-01-16T15:55:28;94832.75;;;4.26;77.74
42601;BME280;28229;48.856;9.088;2023-01-16T15:57:58;94823.34;;;4.14;78.31
42601;BME280;28229;48.856;9.088;2023-01-16T16:00:34;94857.09;;;4.04;78.78
42601;BME280;28229;48.856;9.088;2023-01-16T16:03:17;94828.97;;;3.96;80.47
42601;BME280;28229;48.856;9.088;2023-01-16T16:05:49;94840.34;;;3.90;81.52
42601;BME280;28229;48.856;9.088;2023-01-16T16:08:19;94838.78;;;3.84;82.24
42601;BME280;28229;48.856;9.088;2023-01-16T16:10:46;94829.88;;;3.79;82.93
42601;BME280;28229;48.856;9.088;2023-01-16T16:13:31;94816.88;;;3.74;83.23
42601;BME280;28229;48.856;9.088;2023-01-16T16:16:02;94873.00;;;3.70;84.26
42601;BME280;28229;48.856;9.088;2023-01-16T16:18:58;94830.81;;;3.63;85.24
42601;BME280;28229;48.856;9.088;2023-01-16T16:21:31;94822.75;;;3.59;86.58
42601;BME280;28229;48.856;9.088;2023-01-16T16:24:05;94844.81;;;3.57;87.67
42601;BME280;28229;48.856;9.088;2023-01-16T16:26:41;94824.53;;;3.54;87.71
42601;BME280;28229;48.856;9.088;2023-01-16T16:29:18;94830.72;;;3.48;88.55
42601;BME280;28229;48.856;9.088;2023-01-16T16:31:45;94829.16;;;3.47;88.25
42601;BME280;28229;48.856;9.088;2023-01-16T16:34:19;94830.69;;;3.42;88.53
42601;BME280;28229;48.856;9.088;2023-01-16T16:36:54;94829.09;;;3.41;89.06
42601;BME280;28229;48.856;9.088;2023-01-16T16:39:44;94823.09;;;3.36;89.22
42601;BME280;28229;48.856;9.088;2023-01-16T16:47:36;94832.16;;;3.33;90.47
42601;BME280;28229;48.856;9.088;2023-01-16T16:53:03;94836.22;;;3.24;91.15
42601;BME280;28229;48.856;9.088;2023-01-16T16:55:37;94837.53;;;3.21;91.17
42601;BME280;28229;48.856;9.088;2023-01-16T16:58:06;94840.78;;;3.12;91.67
42601;BME280;28229;48.856;9.088;2023-01-16T17:00:38;94845.50;;;3.15;91.68
42601;BME280;28229;48.856;9.088;2023-01-16T17:03:12;94848.34;;;3.13;91.67
42601;BME280;28229;48.856;9.088;2023-01-16T17:05:41;94848.84;;;3.10;91.81
42601;BME280;28229;48.856;9.088;2023-01-16T17:08:14;94825.16;;;3.07;92.76
42601;BME280;28229;48.856;9.088;2023-01-16T17:10:41;94829.81;;;3.04;92.39
42601;BME280;28229;48.856;9.088;2023-01-16T17:13:10;94839.44;;;3.04;92.79
42601;BME280;28229;48.856;9.088;2023-01-16T17:15:36;94830.03;;;2.98;93.54
42601;BME280;28229;48.856;9.088;2023-01-16T17:18:03;94848.47;;;2.96;93.80
42601;BME280;28229;48.856;9.088;2023-01-16T17:20:30;94844.53;;;2.94;94.32
42601;BME280;28229;48.856;9.088;2023-01-16T17:22:58;94851.28;;;2.95;93.70
42601;BME280;28229;48.856;9.088;2023-01-16T17:25:24;94854.13;;;2.93;93.55
42601;BME280;28229;48.856;9.088;2023-01-16T17:27:51;94845.03;;;2.91;94.27
42601;BME280;28229;48.856;9.088;2023-01-16T17:30:18;94852.56;;;2.92;94.78
42601;BME280;28229;48.856;9.088;2023-01-16T17:35:39;94864.47;;;2.88;94.67
42601;BME280;28229;48.856;9.088;2023-01-16T17:38:17;94853.53;;;2.86;94.85
42601;BME280;28229;48.856;9.088;2023-01-16T17:40:44;94858.97;;;2.84;94.76
42601;BME280;28229;48.856;9.088;2023-01-16T17:43:21;94862.84;;;2.82;95.42
42601;BME280;28229;48.856;9.088;2023-01-16T17:46:13;94871.19;;;2.84;95.19
42601;BME280;28229;48.856;9.088;2023-01-16T17:48:40;94864.59;;;2.76;95.48
42601;BME280;28229;48.856;9.088;2023-01-16T17:51:06;94864.59;;;2.76;95.49
42601;BME280;28229;48.856;9.088;2023-01-16T17:53:34;94871.34;;;2.77;95.17
42601;BME280;28229;48.856;9.088;2023-01-16T17:56:02;94869.00;;;2.76;95.38
42601;BME280;28229;48.856;9.088;2023-01-16T17:58:31;94879.16;;;2.77;95.21
42601;BME280;28229;48.856;9.088;2023-01-16T18:01:10;94883.03;;;2.75;95.27
42601;BME280;28229;48.856;9.088;2023-01-16T18:03:36;94884.09;;;2.79;94.40
42601;BME280;28229;48.856;9.088;2023-01-16T18:06:05;94884.56;;;2.76;95.28
42601;BME280;28229;48.856;9.088;2023-01-16T18:08:31;94881.69;;;2.72;95.39
42601;BME280;28229;48.856;9.088;2023-01-16T18:10:59;94875.47;;;2.73;94.73
42601;BME280;28229;48.856;9.088;2023-01-16T18:13:46;94886.63;;;2.74;95.17
42601;BME280;28229;48.856;9.088;2023-01-16T18:16:31;94895.44;;;2.73;94.86
42601;BME280;28229;48.856;9.088;2023-01-16T18:19:16;94885.78;;;2.68;94.94
42601;BME280;28229;48.856;9.088;2023-01-16T18:21:42;94902.94;;;2.69;94.78
42601;BME280;28229;48.856;9.088;2023-01-16T18:24:27;94886.28;;;2.65;95.08
42601;BME280;28229;48.856;9.088;2023-01-16T18:26:54;94898.47;;;2.64;94.66
42601;BME280;28229;48.856;9.088;2023-01-16T18:29:20;94905.78;;;2.67;94.24
42601;BME280;28229;48.856;9.088;2023-01-16T18:31:46;94923.16;;;2.67;94.54
42601;BME280;28229;48.856;9.088;2023-01-16T18:34:32;94900.59;;;2.67;93.80
42601;BME280;28229;48.856;9.088;2023-01-16T18:36:58;94905.53;;;2.69;93.86
42601;BME280;28229;48.856;9.088;2023-01-16T18:39:24;94907.41;;;2.74;93.27
42601;BME280;28229;48.856;9.088;2023-01-16T18:42:10;94900.09;;;2.71;93.57
42601;BME280;28229;48.856;9.088;2023-01-16T18:44:54;94901.13;;;2.70;93.99
42601;BME280;28229;48.856;9.088;2023-01-16T18:47:39;94895.88;;;2.64;94.41
42601;BME280;28229;48.856;9.088;2023-01-16T18:50:24;94902.69;;;2.71;94.05
42601;BME280;28229;48.856;9.088;2023-01-16T18:53:31;94906.31;;;2.70;93.78
42601;BME280;28229;48.856;9.088;2023-01-16T18:56:21;94914.94;;;2.75;94.02
42601;BME280;28229;48.856;9.088;2023-01-16T18:59:18;94915.72;;;2.76;93.06
42601;BME280;28229;48.856;9.088;2023-01-16T19:04:36;94922.50;;;2.77;93.16
42601;BME280;28229;48.856;9.088;2023-01-16T19:07:06;94915.25;;;2.79;92.56
42601;BME280;28229;48.856;9.088;2023-01-16T19:09:35;94922.03;;;2.80;92.60
42601;BME280;28229;48.856;9.088;2023-01-16T19:12:02;94920.91;;;2.76;92.66
42601;BME280;28229;48.856;9.088;2023-01-16T19:14:33;94909.75;;;2.75;92.98